Time;durP1;ratioP1;P1;durP2;ratioP2;P2;SDS_P1;SDS_P2;PMS_P1;PMS_P2;Temp;Humidity;BMP_temperature;BMP_pressure;BME280_temperature;BME280_humidity;BME280_pressure;Samples;Min_cycle;Max_cycle;Signal;HPM_P1;HPM_P2
2023/12/26 00:02:08;;;;;;;5.97;4.18;;;21.60;99.90;;;;;;5091887;28;20071;-51
2023/12/26 00:04:34;;;;;;;5.65;4.32;;;21.60;99.90;;;;;;5092141;28;20020;-52
2023/12/26 00:06:59;;;;;;;5.35;4.57;;;21.50;99.90;;;;;;5090628;28;20060;-52
2023/12/26 00:09:25;;;;;;;6.38;5.10;;;21.50;99.90;;;;;;5092037;28;20484;-52
2023/12/26 00:11:51;;;;;;;6.82;4.47;;;21.50;99.90;;;;;;5092214;28;20024;-52
2023/12/26 00:14:17;;;;;;;6.00;4.75;;;21.50;99.90;;;;;;5073853;28;20387;-52
2023/12/26 00:16:44;;;;;;;6.03;4.25;;;21.50;99.90;;;;;;5094301;28;20043;-52
2023/12/26 00:19:10;;;;;;;7.18;4.10;;;21.50;99.90;;;;;;5095780;28;20020;-53
2023/12/26 00:21:39;;;;;;;5.25;4.13;;;21.50;99.90;;;;;;5095882;28;20085;-53
2023/12/26 00:24:06;;;;;;;6.40;4.88;;;21.40;99.90;;;;;;5095766;28;20020;-51
2023/12/26 00:26:32;;;;;;;5.25;4.75;;;21.40;99.90;;;;;;5095551;28;20039;-52
2023/12/26 00:28:59;;;;;;;6.25;4.30;;;21.40;99.90;;;;;;5095603;28;20031;-51
2023/12/26 00:31:25;;;;;;;7.35;3.60;;;21.40;99.90;;;;;;5095554;28;20081;-52
2023/12/26 00:33:53;;;;;;;6.28;4.30;;;21.40;99.90;;;;;;5095813;28;20040;-51
2023/12/26 00:36:19;;;;;;;;;;;21.40;99.90;;;;;;5095851;28;20157;-51
2023/12/26 00:38:46;;;;;;;5.43;4.05;;;21.40;99.90;;;;;;5095407;28;20371;-51
2023/12/26 00:41:13;;;;;;;6.70;4.90;;;21.30;99.90;;;;;;5095350;28;20036;-51
2023/12/26 00:43:39;;;;;;;4.85;4.05;;;21.30;99.90;;;;;;5095282;28;20031;-51
2023/12/26 00:46:06;;;;;;;6.68;4.47;;;21.30;99.90;;;;;;5095320;28;20024;-51
2023/12/26 00:48:32;;;;;;;5.88;4.68;;;21.40;99.90;;;;;;5095302;28;20028;-51
2023/12/26 00:50:58;;;;;;;6.78;4.70;;;21.30;99.90;;;;;;5095140;28;20058;-52
2023/12/26 00:53:24;;;;;;;5.70;4.63;;;21.30;99.90;;;;;;5095325;28;20024;-52
2023/12/26 00:55:50;;;;;;;5.43;4.55;;;21.20;99.90;;;;;;5077218;28;20028;-52
2023/12/26 00:58:16;;;;;;;4.78;4.07;;;21.30;99.90;;;;;;5095099;28;20059;-51
2023/12/26 01:00:42;;;;;;;4.03;3.63;;;21.20;99.90;;;;;;5095628;28;20097;-52
2023/12/26 01:03:09;;;;;;;5.85;4.18;;;21.20;99.90;;;;;;5094674;28;20055;-51
2023/12/26 01:05:35;;;;;;;5.18;3.80;;;21.30;99.90;;;;;;5094764;28;20039;-52
2023/12/26 01:08:00;;;;;;;5.97;4.15;;;21.30;99.90;;;;;;5094707;28;20372;-51
2023/12/26 01:10:26;;;;;;;6.03;3.80;;;21.20;99.90;;;;;;5095024;28;20021;-52
2023/12/26 01:12:52;;;;;;;5.20;3.97;;;21.20;99.90;;;;;;5095045;28;20030;-52
2023/12/26 01:15:18;;;;;;;5.43;3.85;;;21.20;99.90;;;;;;5094768;28;20047;-51
2023/12/26 01:17:45;;;;;;;6.10;4.18;;;21.20;99.90;;;;;;5094694;28;20553;-52
2023/12/26 01:20:11;;;;;;;4.75;3.85;;;21.20;99.90;;;;;;5094716;28;20020;-52
2023/12/26 01:22:37;;;;;;;5.18;3.95;;;21.20;99.90;;;;;;5094580;28;20035;-52
2023/12/26 01:25:05;;;;;;;5.97;4.28;;;21.10;99.90;;;;;;5094508;28;20020;-52
2023/12/26 01:27:31;;;;;;;5.40;4.03;;;21.20;99.90;;;;;;5093513;28;20034;-52
2023/12/26 01:29:57;;;;;;;6.97;4.22;;;21.10;99.90;;;;;;5094596;28;20046;-52
2023/12/26 01:32:23;;;;;;;4.93;3.85;;;21.10;99.90;;;;;;5092942;28;20035;-51
2023/12/26 01:34:48;;;;;;;4.72;3.80;;;21.10;99.90;;;;;;5075926;28;20024;-51
2023/12/26 01:37:14;;;;;;;6.18;3.83;;;21.10;99.90;;;;;;5094183;28;20028;-51
2023/12/26 01:39:40;;;;;;;4.95;4.03;;;21.10;99.90;;;;;;5094024;28;20103;-52
2023/12/26 01:42:06;;;;;;;5.10;4.07;;;21.10;99.90;;;;;;5094107;28;20050;-53
2023/12/26 01:44:32;;;;;;;5.25;3.85;;;21.00;99.90;;;;;;5094109;28;20027;-52
2023/12/26 01:46:59;;;;;;;6.22;3.90;;;21.00;99.90;;;;;;5094230;28;20559;-52
2023/12/26 01:49:25;;;;;;;5.07;3.95;;;21.00;99.90;;;;;;5094212;28;20483;-50
2023/12/26 01:51:52;;;;;;;5.25;3.90;;;21.00;99.90;;;;;;5094018;28;20058;-52
2023/12/26 01:54:19;;;;;;;4.57;3.63;;;21.00;99.90;;;;;;5093978;28;20013;-52
2023/12/26 01:56:47;;;;;;;4.03;3.45;;;21.00;99.90;;;;;;5093824;28;20039;-52
2023/12/26 01:59:14;;;;;;;7.32;4.40;;;21.00;99.90;;;;;;5093817;28;20080;-52
2023/12/26 02:01:40;;;;;;;4.38;3.75;;;21.00;99.90;;;;;;5138659;22;20137;-48
2023/12/26 02:04:06;;;;;;;5.07;3.80;;;21.00;99.90;;;;;;5134642;27;20436;-48
2023/12/26 02:06:33;;;;;;;5.70;3.72;;;21.00;99.90;;;;;;5134493;27;20019;-48
2023/12/26 02:08:59;;;;;;;5.13;4.20;;;21.00;99.90;;;;;;5134815;27;20055;-48
2023/12/26 02:11:25;;;;;;;5.68;4.13;;;20.90;99.90;;;;;;5132999;27;20019;-48
2023/12/26 02:13:51;;;;;;;5.15;3.97;;;20.90;99.90;;;;;;5134308;27;20034;-48
2023/12/26 02:16:21;;;;;;;6.38;4.40;;;20.90;99.90;;;;;;5134329;27;20043;-48
2023/12/26 02:18:47;;;;;;;5.00;3.85;;;20.90;99.90;;;;;;5134317;27;20018;-48
2023/12/26 02:21:14;;;;;;;5.78;3.65;;;20.90;99.90;;;;;;5133006;27;20364;-48
2023/12/26 02:23:42;;;;;;;5.80;4.07;;;20.90;99.90;;;;;;5134346;27;20371;-48
2023/12/26 02:26:09;;;;;;;4.65;3.80;;;20.90;99.90;;;;;;5134155;27;20035;-49
2023/12/26 02:28:37;;;;;;;5.07;3.40;;;20.90;99.90;;;;;;5134156;27;20051;-48
2023/12/26 02:31:05;;;;;;;5.60;3.65;;;20.80;99.90;;;;;;5133979;27;20680;-48
2023/12/26 02:33:32;;;;;;;5.78;4.15;;;20.90;99.90;;;;;;5134309;27;20023;-49
2023/12/26 02:35:59;;;;;;;4.45;3.85;;;20.80;99.90;;;;;;5134288;27;20462;-49
2023/12/26 02:38:25;;;;;;;5.40;3.90;;;20.80;99.90;;;;;;5134166;27;20488;-48
2023/12/26 02:40:52;;;;;;;4.28;3.80;;;20.80;99.90;;;;;;5134053;27;20028;-49
2023/12/26 02:43:26;;;;;;;5.37;3.70;;;20.80;99.90;;;;;;5133982;27;20024;-49
2023/12/26 02:45:52;;;;;;;5.70;3.67;;;20.80;99.90;;;;;;5133720;27;20302;-49
2023/12/26 02:48:18;;;;;;;4.45;3.58;;;20.80;99.90;;;;;;5132659;27;20039;-49
2023/12/26 02:50:45;;;;;;;4.22;3.53;;;20.80;99.90;;;;;;5134082;27;20019;-48
2023/12/26 02:53:11;;;;;;;4.40;3.40;;;20.80;99.90;;;;;;5133801;27;20023;-48
2023/12/26 02:55:37;;;;;;;3.70;3.20;;;20.80;99.90;;;;;;5133797;27;20026;-48
2023/12/26 02:58:04;;;;;;;5.25;4.47;;;20.70;99.90;;;;;;5133595;27;20019;-48
2023/12/26 03:00:30;;;;;;;4.32;3.35;;;20.80;99.90;;;;;;5134200;27;20102;-49
2023/12/26 03:02:56;;;;;;;4.32;3.58;;;20.70;99.90;;;;;;5133681;27;20023;-48
2023/12/26 03:05:23;;;;;;;5.10;3.42;;;20.70;99.90;;;;;;5133505;27;20135;-48
2023/12/26 03:07:49;;;;;;;5.47;4.07;;;20.70;99.90;;;;;;5133930;27;20102;-48
2023/12/26 03:10:16;;;;;;;4.47;3.67;;;20.70;99.90;;;;;;5133709;27;20047;-48
2023/12/26 03:12:42;;;;;;;4.05;3.25;;;20.70;99.90;;;;;;5132280;27;20080;-48
2023/12/26 03:15:10;;;;;;;4.05;3.20;;;20.60;99.90;;;;;;5133403;27;20023;-48
2023/12/26 03:17:36;;;;;;;4.43;3.83;;;20.60;99.90;;;;;;5133452;27;20026;-48
2023/12/26 03:20:02;;;;;;;4.57;3.13;;;20.60;99.90;;;;;;5133219;27;20023;-48
2023/12/26 03:22:28;;;;;;;4.50;3.45;;;20.60;99.90;;;;;;5133485;27;20047;-48
2023/12/26 03:24:53;;;;;;;4.70;3.65;;;20.60;99.90;;;;;;5133355;27;20057;-48
2023/12/26 03:27:19;;;;;;;4.40;3.70;;;20.60;99.90;;;;;;5133432;27;20145;-48
2023/12/26 03:29:45;;;;;;;4.13;3.20;;;20.60;99.90;;;;;;5133370;27;20462;-48
2023/12/26 03:32:12;;;;;;;4.15;3.40;;;20.60;99.90;;;;;;5131985;28;20425;-48
2023/12/26 03:34:38;;;;;;;4.90;3.85;;;20.60;99.90;;;;;;5132094;28;20027;-48
2023/12/26 03:37:04;;;;;;;4.75;3.20;;;20.60;99.90;;;;;;5133215;28;20023;-49
2023/12/26 03:39:29;;;;;;;4.72;3.35;;;20.50;99.90;;;;;;5133078;28;20513;-48
2023/12/26 03:41:56;;;;;;;5.20;3.33;;;20.50;99.90;;;;;;5133249;28;20035;-49
2023/12/26 03:44:22;;;;;;;3.78;3.30;;;20.50;99.90;;;;;;5133228;28;20019;-48
2023/12/26 03:46:47;;;;;;;4.22;3.40;;;20.50;99.90;;;;;;5133252;28;20031;-48
2023/12/26 03:49:13;;;;;;;5.25;3.25;;;20.50;99.90;;;;;;5133116;27;20486;-48
2023/12/26 03:51:39;;;;;;;4.82;3.50;;;20.50;99.90;;;;;;5136791;27;20113;-48
2023/12/26 03:54:05;;;;;;;4.45;3.53;;;20.50;99.90;;;;;;5137354;27;20035;-48
2023/12/26 03:56:31;;;;;;;4.63;3.10;;;20.50;99.90;;;;;;5137242;27;20102;-48
2023/12/26 03:58:58;;;;;;;5.55;3.25;;;20.40;99.90;;;;;;5137389;27;20031;-48
2023/12/26 04:01:24;;;;;;;3.60;3.20;;;20.40;99.90;;;;;;5140084;22;20073;-54
2023/12/26 04:03:50;;;;;;;4.13;3.28;;;20.40;99.90;;;;;;5116795;28;20035;-50
2023/12/26 04:06:16;;;;;;;3.72;3.00;;;20.40;99.90;;;;;;5116521;28;20036;-51
2023/12/26 04:08:42;;;;;;;4.05;2.97;;;20.40;99.90;;;;;;5116423;28;20493;-51
2023/12/26 04:11:12;;;;;;;3.05;2.78;;;20.40;99.90;;;;;;5116457;28;20044;-50
2023/12/26 04:13:39;;;;;;;3.58;3.13;;;20.40;99.90;;;;;;5116448;28;20055;-50
2023/12/26 04:16:05;;;;;;;4.25;2.92;;;20.30;99.90;;;;;;5115125;28;20023;-51
2023/12/26 04:18:30;;;;;;;3.70;2.75;;;20.40;99.90;;;;;;5116394;28;20386;-51
2023/12/26 04:20:56;;;;;;;3.58;2.95;;;20.30;99.90;;;;;;5114897;28;20026;-52
2023/12/26 04:23:22;;;;;;;3.90;3.00;;;20.30;99.90;;;;;;5116309;28;20027;-52
2023/12/26 04:25:49;;;;;;;3.40;2.85;;;20.30;99.90;;;;;;5116100;28;20024;-52
2023/12/26 04:28:14;;;;;;;4.10;2.88;;;20.30;99.90;;;;;;5116140;28;20038;-50
2023/12/26 04:30:40;;;;;;;3.88;3.33;;;20.30;99.90;;;;;;5116010;28;20020;-50
2023/12/26 04:33:07;;;;;;;5.68;3.30;;;20.30;99.90;;;;;;5116100;28;20028;-50
2023/12/26 04:35:34;;;;;;;4.13;3.08;;;20.30;99.90;;;;;;5115999;28;20020;-51
2023/12/26 04:38:00;;;;;;;3.58;3.03;;;20.30;99.90;;;;;;5114600;28;20073;-51
2023/12/26 04:40:26;;;;;;;5.38;3.22;;;20.30;99.90;;;;;;5115925;28;20019;-51
2023/12/26 04:42:52;;;;;;;6.05;3.38;;;20.30;99.90;;;;;;5116092;28;20038;-50
2023/12/26 04:45:18;;;;;;;8.23;3.83;;;20.30;99.90;;;;;;5115770;28;20106;-51
2023/12/26 04:47:44;;;;;;;9.00;3.40;;;20.20;99.90;;;;;;5114279;28;20578;-51
2023/12/26 04:50:10;;;;;;;4.90;3.10;;;20.20;99.90;;;;;;5115723;28;20039;-52
2023/12/26 04:52:35;;;;;;;4.35;3.08;;;20.20;99.90;;;;;;5115476;28;20070;-51
2023/12/26 04:55:02;;;;;;;8.02;3.33;;;20.20;99.90;;;;;;5115610;27;20016;-51
2023/12/26 04:57:28;;;;;;;5.05;3.25;;;20.10;99.90;;;;;;5115556;28;20020;-51
2023/12/26 04:59:53;;;;;;;4.00;2.90;;;20.20;99.90;;;;;;5115719;27;20572;-52
2023/12/26 05:02:19;;;;;;;4.38;2.75;;;20.20;99.90;;;;;;5113845;28;20123;-51
2023/12/26 05:04:45;;;;;;;4.60;2.78;;;20.20;99.90;;;;;;5115462;28;20036;-52
2023/12/26 05:07:11;;;;;;;5.20;2.78;;;20.10;99.90;;;;;;5115280;27;20391;-53
2023/12/26 05:09:37;;;;;;;3.42;2.60;;;20.10;99.90;;;;;;5115232;28;20023;-52
2023/12/26 05:12:03;;;;;;;4.05;2.95;;;20.10;99.90;;;;;;5115454;28;20032;-52
2023/12/26 05:14:29;;;;;;;3.38;2.80;;;20.10;99.90;;;;;;5115208;28;20544;-53
2023/12/26 05:16:55;;;;;;;4.88;3.10;;;20.10;99.90;;;;;;5115345;28;20062;-52
2023/12/26 05:19:21;;;;;;;3.70;3.22;;;20.10;99.90;;;;;;5115051;28;20024;-52
2023/12/26 05:21:46;;;;;;;4.82;3.22;;;20.10;99.90;;;;;;5113816;28;20045;-53
2023/12/26 05:24:12;;;;;;;3.75;3.00;;;20.10;99.90;;;;;;5113831;28;20031;-53
2023/12/26 05:26:39;;;;;;;6.57;3.15;;;20.10;99.90;;;;;;5114835;27;20114;-51
2023/12/26 05:29:05;;;;;;;3.28;2.97;;;20.10;99.90;;;;;;5114856;28;20020;-52
2023/12/26 05:31:31;;;;;;;3.38;2.47;;;20.10;99.90;;;;;;5114753;28;20028;-52
2023/12/26 05:33:58;;;;;;;4.07;2.67;;;20.10;99.90;;;;;;5114981;27;20027;-51
2023/12/26 05:36:24;;;;;;;4.07;3.00;;;20.10;99.90;;;;;;5115054;28;20012;-51
2023/12/26 05:38:50;;;;;;;4.72;3.20;;;20.00;99.90;;;;;;5114736;28;20085;-51
2023/12/26 05:41:16;;;;;;;3.85;3.30;;;20.00;99.90;;;;;;5114748;28;20020;-53
2023/12/26 05:43:41;;;;;;;3.22;2.90;;;20.00;99.90;;;;;;5114836;28;20024;-52
2023/12/26 05:46:07;;;;;;;3.72;3.00;;;20.00;99.90;;;;;;5114566;28;20047;-50
2023/12/26 05:48:34;;;;;;;4.00;3.20;;;20.00;99.90;;;;;;5114878;28;20106;-51
2023/12/26 05:50:59;;;;;;;3.53;3.00;;;20.00;99.90;;;;;;5114496;28;20034;-51
2023/12/26 05:53:29;;;;;;;3.95;3.10;;;20.00;99.90;;;;;;5113438;28;20019;-51
2023/12/26 05:55:55;;;;;;;4.95;3.17;;;20.00;99.90;;;;;;5114496;28;20051;-51
2023/12/26 05:58:21;;;;;;;3.83;3.00;;;20.00;99.90;;;;;;5114410;28;20034;-51
2023/12/26 06:00:46;;;;;;;4.07;3.25;;;19.90;99.90;;;;;;5113110;28;20383;-52
2023/12/26 06:03:12;;;;;;;4.15;3.20;;;20.00;99.90;;;;;;5114335;28;20111;-51
2023/12/26 06:05:38;;;;;;;4.28;2.90;;;19.90;99.90;;;;;;5114142;28;20374;-50
2023/12/26 06:08:04;;;;;;;3.92;3.20;;;19.90;99.90;;;;;;5114104;28;20032;-51
2023/12/26 06:10:30;;;;;;;4.65;2.97;;;19.90;99.90;;;;;;5114139;28;20027;-51
2023/12/26 06:12:55;;;;;;;6.57;3.40;;;19.90;99.90;;;;;;5114069;28;20077;-51
2023/12/26 06:15:21;;;;;;;3.63;3.05;;;19.90;99.90;;;;;;5112661;28;20026;-51
2023/12/26 06:17:47;;;;;;;4.85;3.28;;;19.90;99.90;;;;;;5113988;28;20053;-51
2023/12/26 06:20:14;;;;;;;4.90;2.90;;;19.90;99.90;;;;;;5113784;28;20034;-51
2023/12/26 06:22:40;;;;;;;3.35;3.05;;;19.90;99.90;;;;;;5114296;28;20039;-52
2023/12/26 06:25:07;;;;;;;4.38;2.72;;;19.90;99.90;;;;;;5113823;28;20479;-52
2023/12/26 06:27:32;;;;;;;3.50;2.90;;;19.90;99.90;;;;;;5113710;28;20032;-51
2023/12/26 06:29:59;;;;;;;3.63;3.08;;;19.90;99.90;;;;;;5113947;28;20027;-51
2023/12/26 06:32:25;;;;;;;4.45;3.03;;;19.90;99.90;;;;;;5113571;28;20375;-51
2023/12/26 06:34:51;;;;;;;4.93;3.08;;;19.90;99.90;;;;;;5113666;28;20138;-51
2023/12/26 06:37:17;;;;;;;4.20;3.05;;;19.90;99.90;;;;;;5113607;28;20503;-51
2023/12/26 06:39:43;;;;;;;6.10;3.20;;;19.90;99.90;;;;;;5113535;28;20032;-51
2023/12/26 06:42:13;;;;;;;3.00;2.70;;;19.90;99.90;;;;;;5113590;28;20149;-51
2023/12/26 06:44:40;;;;;;;4.85;3.40;;;19.80;99.90;;;;;;5113402;28;20054;-52
2023/12/26 06:47:06;;;;;;;4.72;3.17;;;19.80;99.90;;;;;;5113322;28;20036;-51
2023/12/26 06:49:32;;;;;;;5.38;3.55;;;19.80;99.90;;;;;;5112128;28;20347;-52
2023/12/26 06:51:59;;;;;;;5.20;2.72;;;19.80;99.90;;;;;;5113393;28;20032;-51
2023/12/26 06:54:26;;;;;;;4.63;3.50;;;19.80;99.90;;;;;;5113252;28;20095;-52
2023/12/26 06:56:52;;;;;;;4.00;3.17;;;19.80;99.90;;;;;;5113131;28;20038;-52
2023/12/26 06:59:18;;;;;;;4.93;3.25;;;19.80;99.90;;;;;;5113086;28;20472;-52
2023/12/26 07:01:48;;;;;;;4.20;3.15;;;19.80;99.90;;;;;;5112988;28;20052;-52
2023/12/26 07:04:14;;;;;;;4.22;3.20;;;19.80;99.90;;;;;;5113115;28;20028;-52
2023/12/26 07:06:40;;;;;;;3.30;2.80;;;19.80;99.90;;;;;;5112988;28;20032;-52
2023/12/26 07:09:05;;;;;;;6.05;3.30;;;19.80;99.90;;;;;;5113004;28;20151;-52
2023/12/26 07:11:33;;;;;;;11.32;3.10;;;19.70;99.90;;;;;;5113125;28;20024;-52
2023/12/26 07:13:58;;;;;;;4.07;3.00;;;19.70;99.90;;;;;;5113189;28;20023;-51
2023/12/26 07:16:24;;;;;;;3.42;2.80;;;19.70;99.90;;;;;;5112971;28;20111;-51
2023/12/26 07:18:52;;;;;;;4.88;3.22;;;19.70;99.90;;;;;;5112919;28;20027;-51
2023/12/26 07:21:19;;;;;;;4.53;2.95;;;19.70;99.90;;;;;;5112871;28;20110;-51
2023/12/26 07:23:46;;;;;;;6.40;3.65;;;19.70;99.90;;;;;;5112860;28;20039;-52
2023/12/26 07:26:13;;;;;;;3.80;2.97;;;19.70;99.90;;;;;;5112092;28;20043;-52
2023/12/26 07:28:39;;;;;;;4.65;2.75;;;19.70;99.90;;;;;;5111430;28;20030;-51
2023/12/26 07:31:04;;;;;;;4.18;3.60;;;19.70;99.90;;;;;;5112732;28;20023;-51
2023/12/26 07:33:30;;;;;;;4.97;3.38;;;19.70;99.90;;;;;;5112965;28;20026;-53
2023/12/26 07:35:57;;;;;;;5.47;3.20;;;19.70;99.90;;;;;;5112590;28;20069;-52
2023/12/26 07:38:24;;;;;;;4.95;3.28;;;19.70;99.90;;;;;;5112732;28;20023;-52
2023/12/26 07:40:50;;;;;;;6.63;3.58;;;19.70;99.90;;;;;;5112687;28;20050;-52
2023/12/26 07:43:16;;;;;;;4.75;3.30;;;19.70;99.90;;;;;;5112595;28;20051;-53
2023/12/26 07:45:43;;;;;;;4.80;3.42;;;19.70;99.90;;;;;;5112578;28;20019;-53
2023/12/26 07:48:10;;;;;;;4.97;3.38;;;19.70;99.90;;;;;;5112736;28;20421;-52
2023/12/26 07:50:37;;;;;;;6.50;3.38;;;19.70;99.90;;;;;;5112475;28;20047;-52
2023/12/26 07:53:04;;;;;;;4.60;3.10;;;19.70;99.90;;;;;;5112750;28;20110;-52
2023/12/26 07:55:32;;;;;;;4.90;3.28;;;19.70;99.90;;;;;;5111391;28;20023;-52
2023/12/26 07:57:58;;;;;;;5.35;3.40;;;19.70;99.90;;;;;;5111214;28;20171;-52
2023/12/26 08:00:24;;;;;;;4.85;3.50;;;19.70;99.90;;;;;;5112563;28;20059;-52
2023/12/26 08:02:50;;;;;;;7.72;3.35;;;19.70;99.90;;;;;;5112295;28;20114;-51
2023/12/26 08:05:15;;;;;;;5.47;3.42;;;19.70;99.90;;;;;;5112488;28;20032;-53
2023/12/26 08:07:41;;;;;;;5.45;3.53;;;19.70;99.90;;;;;;5112309;28;20028;-53
2023/12/26 08:10:07;;;;;;;4.20;3.28;;;19.70;99.90;;;;;;5112548;28;20023;-53
2023/12/26 08:12:33;;;;;;;5.93;3.60;;;19.80;99.90;;;;;;5112614;28;20383;-53
2023/12/26 08:14:59;;;;;;;5.93;3.50;;;19.80;99.90;;;;;;5112367;28;20016;-52
2023/12/26 08:17:25;;;;;;;3.92;2.83;;;19.80;99.90;;;;;;5110949;28;20080;-52
2023/12/26 08:19:51;;;;;;;4.93;3.25;;;19.80;99.90;;;;;;5112170;28;20026;-51
2023/12/26 08:22:16;;;;;;;4.32;3.30;;;19.80;99.90;;;;;;5112337;28;20027;-52
2023/12/26 08:24:42;;;;;;;5.80;3.05;;;19.80;99.90;;;;;;5112148;28;20020;-52
2023/12/26 08:27:08;;;;;;;4.88;3.45;;;19.90;99.90;;;;;;5112044;28;20031;-51
2023/12/26 08:29:34;;;;;;;5.22;3.83;;;19.90;99.90;;;;;;5112353;28;20019;-51
2023/12/26 08:32:00;;;;;;;5.05;3.45;;;19.90;99.90;;;;;;5112004;28;20364;-51
2023/12/26 08:34:25;;;;;;;4.93;3.88;;;20.00;99.90;;;;;;5112050;28;20094;-51
2023/12/26 08:36:51;;;;;;;4.45;3.42;;;20.00;99.90;;;;;;5114066;28;20051;-51
2023/12/26 08:39:18;;;;;;;4.78;3.25;;;20.00;99.90;;;;;;5115838;28;20028;-52
2023/12/26 08:41:44;;;;;;;3.58;3.20;;;20.00;99.90;;;;;;5115748;28;20024;-52
2023/12/26 08:44:10;;;;;;;3.75;3.28;;;20.10;99.90;;;;;;5115623;28;20035;-52
2023/12/26 08:46:36;;;;;;;5.75;3.33;;;20.10;99.90;;;;;;5115806;28;20043;-53
2023/12/26 08:49:05;;;;;;;4.10;3.30;;;20.20;99.90;;;;;;5115530;28;20046;-52
2023/12/26 08:51:31;;;;;;;6.63;3.67;;;20.20;99.90;;;;;;5115553;28;20467;-52
2023/12/26 08:53:57;;;;;;;4.82;3.25;;;20.20;99.90;;;;;;5115551;27;20016;-52
2023/12/26 08:56:26;;;;;;;5.05;3.17;;;20.30;99.90;;;;;;5114132;28;20493;-53
2023/12/26 08:58:51;;;;;;;4.05;3.13;;;20.30;99.90;;;;;;5115477;27;20043;-52
2023/12/26 09:01:17;;;;;;;4.93;3.70;;;20.30;99.90;;;;;;5115202;28;20035;-52
2023/12/26 09:03:43;;;;;;;3.80;3.03;;;20.40;99.90;;;;;;5115398;28;20054;-52
2023/12/26 09:06:12;;;;;;;5.35;3.40;;;20.40;99.90;;;;;;5115330;28;20028;-52
2023/12/26 09:08:38;;;;;;;5.85;3.70;;;20.40;99.90;;;;;;5115338;28;20036;-52
2023/12/26 09:11:04;;;;;;;4.07;3.05;;;20.50;99.90;;;;;;5115241;28;20031;-52
2023/12/26 09:13:29;;;;;;;5.22;3.45;;;20.50;99.90;;;;;;5115193;28;20027;-52
2023/12/26 09:15:58;;;;;;;5.32;3.53;;;20.50;99.90;;;;;;5113764;28;20030;-52
2023/12/26 09:18:24;;;;;;;3.72;2.90;;;20.60;99.90;;;;;;5115112;28;20028;-52
2023/12/26 09:20:50;;;;;;;4.60;2.72;;;20.60;99.90;;;;;;5115076;28;20043;-52
2023/12/26 09:23:18;;;;;;;4.78;4.20;;;20.60;99.90;;;;;;5096730;28;20028;-52
2023/12/26 09:25:44;;;;;;;6.05;3.42;;;20.70;99.90;;;;;;5114978;28;20015;-52
2023/12/26 09:28:09;;;;;;;4.72;3.25;;;20.70;99.90;;;;;;5114810;28;20496;-52
2023/12/26 09:30:36;;;;;;;5.28;3.35;;;20.70;99.90;;;;;;5113923;28;20506;-52
2023/12/26 09:33:02;;;;;;;4.93;3.17;;;20.80;99.90;;;;;;5114731;28;20032;-52
2023/12/26 09:35:29;;;;;;;3.72;3.30;;;20.80;99.90;;;;;;5114716;28;20027;-53
2023/12/26 09:37:55;;;;;;;5.03;3.15;;;20.90;99.90;;;;;;5114766;28;20035;-52
2023/12/26 09:40:21;;;;;;;4.32;3.28;;;20.90;99.90;;;;;;5113291;28;20023;-53
2023/12/26 09:42:46;;;;;;;7.03;3.20;;;20.90;99.90;;;;;;5114563;27;20019;-52
2023/12/26 09:45:13;;;;;;;4.32;3.05;;;20.90;99.90;;;;;;5114253;28;20110;-53
2023/12/26 09:47:43;;;;;;;5.93;2.90;;;21.00;99.90;;;;;;5114113;28;20027;-52
2023/12/26 09:50:10;;;;;;;4.20;3.25;;;21.00;99.90;;;;;;5114642;28;20038;-51
2023/12/26 09:52:36;;;;;;;5.37;3.17;;;21.10;99.90;;;;;;5113296;28;20068;-52
2023/12/26 09:55:02;;;;;;;4.75;3.60;;;21.10;99.90;;;;;;5114280;28;20777;-52
2023/12/26 09:57:29;;;;;;;5.32;3.38;;;21.20;99.90;;;;;;5114336;28;20035;-52
2023/12/26 09:59:55;;;;;;;4.18;3.10;;;21.20;99.90;;;;;;5114250;28;20024;-52
2023/12/26 10:02:22;;;;;;;4.90;3.15;;;21.20;99.90;;;;;;5114075;28;20495;-52
2023/12/26 10:04:47;;;;;;;4.15;3.40;;;21.30;99.90;;;;;;5114164;28;20027;-52
2023/12/26 10:07:23;;;;;;;4.88;3.00;;;21.30;99.90;;;;;;5113968;28;20042;-52
2023/12/26 10:09:48;;;;;;;3.67;3.10;;;21.30;99.90;;;;;;5114102;28;20047;-50
2023/12/26 10:12:14;;;;;;;4.32;3.20;;;21.30;99.90;;;;;;5096168;28;20446;-52
2023/12/26 10:14:40;;;;;;;3.40;3.10;;;21.40;99.90;;;;;;5114168;28;20099;-52
2023/12/26 10:17:07;;;;;;;3.70;2.90;;;21.40;99.90;;;;;;5113907;28;20532;-52
2023/12/26 10:19:33;;;;;;;6.03;3.00;;;21.50;99.90;;;;;;5113911;28;20091;-51
2023/12/26 10:21:59;;;;;;;3.85;2.95;;;21.60;99.90;;;;;;5113701;28;20024;-52
2023/12/26 10:24:24;;;;;;;4.43;3.38;;;21.60;99.90;;;;;;5113687;28;20027;-52
2023/12/26 10:26:50;;;;;;;4.60;3.25;;;21.70;99.90;;;;;;5112617;28;20479;-54
2023/12/26 10:29:16;;;;;;;4.88;3.55;;;21.70;99.90;;;;;;5113937;28;20065;-52
2023/12/26 10:31:43;;;;;;;3.80;3.20;;;21.80;99.90;;;;;;5113700;28;20091;-52
2023/12/26 10:34:17;;;;;;;3.58;2.83;;;21.80;99.90;;;;;;5113558;28;20038;-52
2023/12/26 10:36:50;;;;;;;3.85;2.97;;;21.80;99.90;;;;;;5113408;28;20038;-51
2023/12/26 10:39:17;;;;;;;3.78;2.72;;;21.90;99.90;;;;;;5113505;28;20059;-52
2023/12/26 10:41:45;;;;;;;4.93;3.17;;;21.90;99.90;;;;;;5113541;28;20028;-53
2023/12/26 10:44:13;;;;;;;6.60;3.10;;;22.00;99.90;;;;;;5113451;28;20016;-53
2023/12/26 10:46:40;;;;;;;3.72;3.15;;;22.00;99.90;;;;;;5113294;28;20051;-54
2023/12/26 10:49:17;;;;;;;3.97;3.47;;;22.10;99.90;;;;;;5113413;28;20047;-53
2023/12/26 10:51:43;;;;;;;5.75;3.65;;;22.20;99.90;;;;;;5113380;27;20027;-52
2023/12/26 10:54:24;;;;;;;5.30;3.67;;;22.20;99.90;;;;;;5113169;28;20073;-53
2023/12/26 10:56:51;;;;;;;5.18;3.05;;;22.20;99.90;;;;;;5113015;28;20535;-52
2023/12/26 10:59:18;;;;;;;4.80;3.80;;;22.30;99.90;;;;;;5111068;28;20115;-54
2023/12/26 11:01:45;;;;;;;5.43;3.40;;;22.30;99.90;;;;;;5112940;28;20039;-53
2023/12/26 11:04:12;;;;;;;4.40;3.40;;;22.30;99.90;;;;;;5113232;28;20050;-52
2023/12/26 11:06:39;;;;;;;5.25;3.58;;;22.40;99.90;;;;;;5112921;28;20055;-53
2023/12/26 11:09:05;;;;;;;4.55;3.65;;;22.40;99.90;;;;;;5112876;28;20332;-54
2023/12/26 11:11:31;;;;;;;7.03;4.18;;;22.40;99.90;;;;;;5112879;28;20028;-54
2023/12/26 11:13:58;;;;;;;8.18;5.00;;;22.50;99.90;;;;;;5112875;28;20046;-52
2023/12/26 11:16:24;;;;;;;7.50;5.27;;;22.50;99.90;;;;;;5112885;28;20370;-53
2023/12/26 11:18:51;;;;;;;6.85;4.50;;;22.60;99.90;;;;;;5112939;28;20027;-55
2023/12/26 11:21:17;;;;;;;8.80;5.32;;;22.60;99.90;;;;;;5112993;28;20108;-54
2023/12/26 11:23:45;;;;;;;7.32;5.20;;;22.60;99.90;;;;;;5112916;28;20467;-53
2023/12/26 11:26:12;;;;;;;8.07;6.10;;;22.60;99.90;;;;;;5112855;28;20080;-54
2023/12/26 11:28:40;;;;;;;7.95;6.32;;;22.70;99.90;;;;;;5111287;28;20032;-53
2023/12/26 11:31:07;;;;;;;8.18;6.13;;;22.70;99.90;;;;;;5112627;28;20030;-53
2023/12/26 11:33:33;;;;;;;10.63;6.10;;;22.70;99.90;;;;;;5112630;28;20031;-54
2023/12/26 11:35:59;;;;;;;9.55;6.97;;;22.80;99.90;;;;;;5111198;28;20036;-53
2023/12/26 11:38:25;;;;;;;10.32;6.00;;;22.80;99.90;;;;;;5112542;28;20059;-54
2023/12/26 11:40:50;;;;;;;10.88;6.78;;;22.80;99.90;;;;;;5112350;28;20020;-53
2023/12/26 11:43:16;;;;;;;10.73;6.70;;;22.80;99.90;;;;;;5112769;28;20051;-54
2023/12/26 11:45:43;;;;;;;14.13;6.63;;;22.90;99.90;;;;;;5111462;28;20087;-53
2023/12/26 11:48:09;;;;;;;13.40;7.13;;;22.90;99.90;;;;;;5111188;28;20036;-54
2023/12/26 11:50:35;;;;;;;8.27;6.22;;;22.90;99.90;;;;;;5112382;28;20483;-54
2023/12/26 11:53:01;;;;;;;10.68;7.13;;;23.00;99.90;;;;;;5112490;28;20034;-55
2023/12/26 11:55:27;;;;;;;10.82;6.80;;;23.00;99.90;;;;;;5112357;28;20046;-54
2023/12/26 11:57:52;;;;;;;10.32;6.75;;;23.00;99.90;;;;;;5112349;28;20102;-54
2023/12/26 12:00:18;;;;;;;10.60;6.78;;;23.10;99.90;;;;;;5112280;28;20145;-55
2023/12/26 12:02:44;;;;;;;9.40;7.07;;;23.10;99.90;;;;;;5112477;28;20391;-54
2023/12/26 12:05:15;;;;;;;9.80;7.55;;;23.10;99.90;;;;;;5112384;28;20028;-54
2023/12/26 12:07:40;;;;;;;9.57;6.88;;;23.10;99.90;;;;;;5112291;28;20032;-54
2023/12/26 12:10:10;;;;;;;10.23;7.22;;;23.20;99.90;;;;;;5111053;28;20459;-54
2023/12/26 12:12:36;;;;;;;9.95;6.65;;;23.20;99.90;;;;;;5115759;28;20073;-54
2023/12/26 12:15:02;;;;;;;9.20;6.93;;;23.20;99.90;;;;;;5116196;28;20016;-53
2023/12/26 12:17:28;;;;;;;10.48;6.78;;;23.20;99.90;;;;;;5116206;28;20019;-53
2023/12/26 12:19:54;;;;;;;9.10;6.90;;;23.30;99.90;;;;;;5114682;28;20374;-56
2023/12/26 12:22:26;;;;;;;8.77;6.72;;;23.30;99.90;;;;;;5116240;28;20042;-54
2023/12/26 12:24:52;;;;;;;10.13;6.22;;;23.30;99.90;;;;;;5116100;28;20371;-53
2023/12/26 12:27:17;;;;;;;10.55;7.00;;;23.40;99.90;;;;;;5116175;28;20031;-53
2023/12/26 12:29:59;;;;;;;10.10;6.43;;;23.40;99.90;;;;;;5116089;28;20070;-53
2023/12/26 12:32:32;;;;;;;10.05;6.72;;;23.40;99.90;;;;;;5116092;28;20030;-53
2023/12/26 12:35:13;;;;;;;8.93;6.50;;;23.40;99.90;;;;;;5115817;28;20019;-54
2023/12/26 12:37:39;;;;;;;9.00;6.10;;;23.50;99.90;;;;;;5115973;28;20076;-54
2023/12/26 12:40:08;;;;;;;8.80;6.07;;;23.50;99.90;;;;;;5115684;28;20425;-54
2023/12/26 12:42:34;;;;;;;7.40;5.53;;;23.50;99.90;;;;;;5115773;28;20032;-56